createdAt,value
2023-03-08T00:01:43.857Z,95.90
2023-03-08T00:04:13.551Z,95.90
2023-03-08T00:06:42.793Z,95.80
2023-03-08T00:09:12.110Z,95.80
2023-03-08T00:11:41.226Z,95.70
2023-03-08T00:14:10.344Z,95.70
2023-03-08T00:16:39.493Z,95.60
2023-03-08T00:19:08.600Z,95.70
2023-03-08T00:21:37.693Z,95.70
2023-03-08T00:24:07.192Z,95.70
2023-03-08T00:26:36.347Z,95.60
2023-03-08T00:29:05.788Z,95.70
2023-03-08T00:31:35.170Z,95.50
2023-03-08T00:34:04.376Z,95.40
2023-03-08T00:36:33.621Z,95.30
2023-03-08T00:39:02.851Z,95.20
2023-03-08T00:41:32.156Z,95.00
2023-03-08T00:44:01.344Z,95.00
2023-03-08T00:46:30.517Z,95.10
2023-03-08T00:49:00.773Z,95.10
2023-03-08T00:51:29.917Z,95.20
2023-03-08T00:53:59.013Z,95.20
2023-03-08T00:56:28.534Z,94.90
2023-03-08T00:58:57.634Z,94.90
2023-03-08T01:01:26.979Z,94.80
2023-03-08T01:03:56.543Z,94.60
2023-03-08T01:06:25.655Z,94.60
2023-03-08T01:08:54.787Z,94.50
2023-03-08T01:11:27.837Z,94.50
2023-03-08T01:13:57.984Z,94.30
2023-03-08T01:16:33.437Z,94.10
2023-03-08T01:19:31.769Z,93.70
2023-03-08T01:22:06.400Z,93.50
2023-03-08T01:24:38.781Z,93.30
2023-03-08T01:27:13.085Z,93.20
2023-03-08T01:29:51.267Z,93.10
2023-03-08T01:32:20.509Z,93.10
2023-03-08T01:34:55.569Z,93.10
2023-03-08T01:37:27.564Z,93.10
2023-03-08T01:40:01.758Z,93.10
2023-03-08T01:42:32.106Z,93.00
2023-03-08T01:45:07.959Z,92.90
2023-03-08T01:47:46.064Z,92.90
2023-03-08T01:50:20.579Z,92.90
2023-03-08T01:52:56.910Z,92.90
2023-03-08T01:55:26.284Z,92.80
2023-03-08T01:57:58.423Z,92.60
2023-03-08T02:00:29.142Z,92.50
2023-03-08T02:03:29.038Z,92.40
2023-03-08T02:05:59.266Z,92.20
2023-03-08T02:08:28.743Z,92.10
2023-03-08T02:11:00.471Z,91.80
2023-03-08T02:13:30.393Z,91.90
2023-03-08T02:16:03.652Z,91.50
2023-03-08T02:18:32.792Z,91.30
2023-03-08T02:21:03.053Z,91.20
2023-03-08T02:23:32.209Z,91.00
2023-03-08T02:26:06.565Z,90.90
2023-03-08T02:28:36.291Z,90.80
2023-03-08T02:31:05.454Z,90.70
2023-03-08T02:33:37.508Z,90.70
2023-03-08T02:36:09.375Z,90.70
2023-03-08T02:38:39.357Z,90.60
2023-03-08T02:41:08.783Z,90.40
2023-03-08T02:43:38.057Z,90.30
2023-03-08T02:46:07.422Z,90.10
2023-03-08T02:48:36.532Z,90.20
2023-03-08T02:51:05.715Z,90.10
2023-03-08T02:53:34.839Z,90.00
2023-03-08T02:56:03.946Z,90.00
2023-03-08T02:58:33.106Z,89.90
2023-03-08T03:01:02.363Z,89.70
2023-03-08T03:03:32.409Z,89.20
2023-03-08T03:06:01.964Z,88.80
2023-03-08T03:08:32.940Z,88.80
2023-03-08T03:11:02.107Z,88.70
2023-03-08T03:13:31.158Z,88.20
2023-03-08T03:16:00.349Z,88.50
2023-03-08T03:18:29.536Z,88.60
2023-03-08T03:21:06.579Z,88.60
2023-03-08T03:23:36.140Z,88.70
2023-03-08T03:26:16.332Z,88.40
2023-03-08T03:28:46.133Z,88.10
2023-03-08T03:31:22.359Z,87.80
2023-03-08T03:33:53.050Z,87.20
2023-03-08T03:36:24.263Z,86.60
2023-03-08T03:38:53.627Z,85.90
2023-03-08T03:41:25.193Z,85.70
2023-03-08T03:43:54.981Z,85.30
2023-03-08T03:46:24.246Z,85.30
2023-03-08T03:48:53.471Z,85.20
2023-03-08T03:51:24.684Z,85.20
2023-03-08T03:53:57.086Z,85.20
2023-03-08T03:56:28.819Z,85.10
2023-03-08T03:58:58.013Z,85.00
2023-03-08T04:01:35.620Z,85.10
2023-03-08T04:04:05.236Z,85.10
2023-03-08T04:06:36.721Z,85.20
2023-03-08T04:09:16.121Z,84.70
2023-03-08T04:11:45.692Z,84.40
2023-03-08T04:14:14.927Z,84.60
2023-03-08T04:16:44.149Z,84.70
2023-03-08T04:19:15.217Z,83.90
2023-03-08T04:21:44.427Z,83.10
2023-03-08T04:24:13.577Z,82.30
2023-03-08T04:26:42.688Z,81.50
2023-03-08T04:29:11.937Z,81.00
2023-03-08T04:31:41.166Z,80.70
2023-03-08T04:34:10.407Z,79.60
2023-03-08T04:36:39.672Z,78.60
2023-03-08T04:39:09.561Z,77.60
2023-03-08T04:41:38.686Z,78.20
2023-03-08T04:44:07.773Z,78.50
2023-03-08T04:46:36.926Z,78.20
2023-03-08T04:49:06.093Z,77.70
2023-03-08T04:51:35.264Z,78.20
2023-03-08T04:54:05.788Z,78.40
2023-03-08T04:56:34.915Z,78.70
2023-03-08T04:59:04.289Z,77.80
2023-03-08T05:01:33.473Z,77.40
2023-03-08T05:04:02.704Z,76.50
2023-03-08T05:06:31.790Z,76.30
2023-03-08T05:09:00.973Z,75.30
2023-03-08T05:11:31.451Z,74.70
2023-03-08T05:14:01.837Z,74.40
2023-03-08T05:16:31.124Z,73.50
2023-03-08T05:19:00.274Z,73.00
2023-03-08T05:21:29.520Z,72.60
2023-03-08T05:24:01.614Z,71.90
2023-03-08T05:26:30.794Z,71.60
2023-03-08T05:29:04.413Z,71.50
2023-03-08T05:31:34.108Z,71.20
2023-03-08T05:34:03.192Z,70.90
2023-03-08T05:36:32.327Z,71.30
2023-03-08T05:39:01.523Z,69.20
2023-03-08T05:41:31.025Z,68.00
2023-03-08T05:44:02.548Z,68.70
2023-03-08T05:46:32.123Z,68.80
2023-03-08T05:49:01.330Z,69.10
2023-03-08T05:51:30.477Z,68.90
2023-03-08T05:53:59.692Z,69.90
2023-03-08T05:56:28.822Z,69.70
2023-03-08T05:58:57.998Z,69.50
2023-03-08T06:01:29.399Z,68.40
2023-03-08T06:04:00.032Z,69.10
2023-03-08T06:06:30.012Z,68.10
2023-03-08T06:08:59.401Z,68.40
2023-03-08T06:11:28.748Z,68.30
2023-03-08T06:13:57.939Z,67.30
2023-03-08T06:16:27.089Z,68.10
2023-03-08T06:18:56.219Z,68.20
2023-03-08T06:21:25.447Z,67.50
2023-03-08T06:23:54.524Z,66.80
2023-03-08T06:26:23.823Z,66.70
2023-03-08T06:28:53.252Z,66.60
2023-03-08T06:31:22.439Z,66.40
2023-03-08T06:33:51.554Z,66.70
2023-03-08T06:36:23.187Z,67.00
2023-03-08T06:38:52.866Z,66.50
2023-03-08T06:41:22.915Z,66.90
2023-03-08T06:43:52.168Z,66.40
2023-03-08T06:46:21.798Z,66.70
2023-03-08T06:48:51.571Z,67.00
2023-03-08T06:51:21.042Z,65.10
2023-03-08T06:53:50.426Z,64.10
2023-03-08T06:56:20.209Z,62.70
2023-03-08T06:58:49.448Z,62.50
2023-03-08T07:01:18.678Z,62.90
2023-03-08T07:03:49.740Z,63.30
2023-03-08T07:06:18.819Z,64.00
2023-03-08T07:08:47.983Z,63.80
2023-03-08T07:11:17.164Z,63.10
2023-03-08T07:13:46.479Z,62.40
2023-03-08T07:16:17.222Z,62.70
2023-03-08T07:18:46.585Z,62.30
2023-03-08T07:21:15.760Z,63.00
2023-03-08T07:23:44.847Z,62.50
2023-03-08T07:26:14.671Z,61.90
2023-03-08T07:28:43.879Z,62.00
2023-03-08T07:31:13.950Z,62.10
2023-03-08T07:33:43.161Z,62.10
2023-03-08T07:36:12.390Z,62.30
2023-03-08T07:38:41.790Z,62.30
2023-03-08T07:41:11.515Z,62.60
2023-03-08T07:43:41.225Z,62.20
2023-03-08T07:46:10.563Z,62.40
2023-03-08T07:48:39.863Z,61.60
2023-03-08T07:51:11.405Z,61.80
2023-03-08T07:53:40.959Z,62.20
2023-03-08T07:56:10.671Z,63.00
2023-03-08T07:58:40.622Z,62.30
2023-03-08T08:01:15.624Z,61.70
2023-03-08T08:03:44.900Z,61.50
2023-03-08T08:06:14.215Z,61.70
2023-03-08T08:08:43.482Z,61.40
2023-03-08T08:11:18.446Z,61.80
2023-03-08T08:13:48.313Z,61.80
2023-03-08T08:16:20.210Z,62.30
2023-03-08T08:18:49.545Z,61.80
2023-03-08T08:21:18.993Z,61.80
2023-03-08T08:23:48.821Z,61.20
2023-03-08T08:26:23.534Z,61.60
2023-03-08T08:28:55.650Z,61.70
2023-03-08T08:31:31.944Z,61.60
2023-03-08T08:34:02.082Z,61.30
2023-03-08T08:36:31.408Z,61.40
2023-03-08T08:39:00.618Z,61.40
2023-03-08T08:41:30.655Z,61.50
2023-03-08T08:44:01.403Z,62.30
2023-03-08T08:46:31.965Z,62.60
2023-03-08T08:49:02.111Z,62.90
2023-03-08T08:51:31.353Z,62.60
2023-03-08T08:54:00.767Z,62.50
2023-03-08T08:56:31.410Z,62.20
2023-03-08T08:59:04.193Z,62.50
2023-03-08T09:01:36.678Z,63.40
2023-03-08T09:04:06.014Z,63.60
2023-03-08T09:06:35.260Z,63.30
2023-03-08T09:09:05.699Z,62.70
2023-03-08T09:11:39.861Z,63.00
2023-03-08T09:14:17.926Z,62.60
2023-03-08T09:16:47.140Z,63.00
2023-03-08T09:19:16.557Z,63.00
2023-03-08T09:21:46.344Z,62.70
2023-03-08T09:24:15.834Z,62.50
2023-03-08T09:26:45.039Z,62.20
2023-03-08T09:29:14.521Z,62.50
2023-03-08T09:31:45.156Z,63.20
2023-03-08T09:34:16.533Z,63.80
2023-03-08T09:36:46.267Z,63.60
2023-03-08T09:39:16.137Z,63.80
2023-03-08T09:41:56.852Z,63.30
2023-03-08T09:45:20.519Z,63.50
2023-03-08T09:47:53.754Z,63.60
2023-03-08T09:50:58.180Z,63.60
2023-03-08T09:53:59.034Z,63.80
2023-03-08T09:56:46.010Z,64.30
2023-03-08T09:59:42.043Z,64.10
2023-03-08T10:03:04.839Z,64.00
2023-03-08T10:06:02.055Z,64.30
2023-03-08T10:09:00.912Z,64.30
2023-03-08T10:11:54.271Z,64.30
2023-03-08T10:14:43.737Z,64.50
2023-03-08T10:17:26.981Z,64.80
2023-03-08T10:20:23.608Z,65.10
2023-03-08T10:23:23.540Z,65.70
2023-03-08T10:25:54.056Z,65.80
2023-03-08T10:28:27.503Z,66.00
2023-03-08T10:31:01.449Z,66.10
2023-03-08T10:33:37.864Z,66.50
2023-03-08T10:36:20.913Z,66.70
2023-03-08T10:39:23.168Z,67.00
2023-03-08T10:41:58.505Z,67.10
2023-03-08T10:45:23.142Z,67.50
2023-03-08T10:48:05.445Z,67.80
2023-03-08T10:50:38.731Z,68.50
2023-03-08T10:53:21.403Z,68.60
2023-03-08T10:55:54.042Z,68.70
2023-03-08T10:58:41.112Z,69.00
2023-03-08T11:01:33.643Z,69.20
2023-03-08T11:04:14.135Z,69.50
2023-03-08T11:06:43.761Z,70.10
2023-03-08T11:09:37.879Z,70.50
2023-03-08T11:12:07.447Z,70.40
2023-03-08T11:14:37.817Z,71.00
2023-03-08T11:17:40.257Z,71.20
2023-03-08T11:20:29.701Z,71.60
2023-03-08T11:23:30.637Z,72.00
2023-03-08T11:26:35.334Z,72.50
2023-03-08T11:29:24.533Z,72.50
2023-03-08T11:32:19.234Z,72.90
2023-03-08T11:35:28.050Z,73.20
2023-03-08T11:38:23.361Z,73.20
2023-03-08T11:41:19.610Z,73.50
2023-03-08T11:44:23.701Z,74.00
2023-03-08T11:47:34.153Z,74.40
2023-03-08T11:50:39.601Z,74.90
2023-03-08T11:53:49.008Z,75.00
2023-03-08T11:57:02.319Z,75.30
2023-03-08T11:59:38.779Z,75.80
2023-03-08T12:02:14.780Z,76.40
2023-03-08T12:05:05.433Z,76.80
2023-03-08T12:08:04.342Z,76.50
2023-03-08T12:10:58.389Z,76.70
2023-03-08T12:13:39.748Z,77.10
2023-03-08T12:16:46.281Z,77.50
2023-03-08T12:19:46.886Z,77.30
2023-03-08T12:22:40.198Z,77.70
2023-03-08T12:25:28.292Z,77.70
2023-03-08T12:28:15.639Z,78.20
2023-03-08T12:31:03.247Z,77.20
2023-03-08T12:33:34.428Z,78.70
2023-03-08T12:36:08.622Z,79.20
2023-03-08T12:38:46.793Z,79.40
2023-03-08T12:41:32.336Z,79.50
2023-03-08T12:44:26.751Z,79.70
2023-03-08T12:47:04.731Z,80.10
2023-03-08T12:49:48.209Z,80.10
2023-03-08T12:52:20.100Z,80.10
2023-03-08T12:55:27.858Z,80.20
2023-03-08T12:57:59.125Z,79.80
2023-03-08T13:00:39.494Z,79.70
2023-03-08T13:03:14.517Z,79.80
2023-03-08T13:05:48.236Z,79.60
2023-03-08T13:08:17.391Z,80.20
2023-03-08T13:11:04.378Z,79.60
2023-03-08T13:14:02.552Z,79.60
2023-03-08T13:16:37.128Z,79.20
2023-03-08T13:19:28.795Z,79.40
2023-03-08T13:22:47.399Z,79.50
2023-03-08T13:25:55.580Z,79.50
2023-03-08T13:28:46.252Z,79.80
2023-03-08T13:31:31.932Z,80.20
2023-03-08T13:34:02.053Z,80.40
2023-03-08T13:36:34.116Z,80.60
2023-03-08T13:39:22.416Z,80.80
2023-03-08T13:41:51.998Z,80.90
2023-03-08T13:44:27.950Z,80.90
2023-03-08T13:47:03.162Z,81.20
2023-03-08T13:49:38.190Z,81.20
2023-03-08T13:52:20.277Z,81.40
2023-03-08T13:54:56.380Z,81.70
2023-03-08T13:57:28.201Z,81.80
2023-03-08T14:00:02.117Z,81.80
2023-03-08T14:02:34.887Z,82.20
2023-03-08T14:05:04.185Z,82.40
2023-03-08T14:07:33.852Z,82.90
2023-03-08T14:10:03.027Z,82.60
2023-03-08T14:12:35.570Z,82.70
2023-03-08T14:15:07.181Z,82.70
2023-03-08T14:17:37.977Z,82.80
2023-03-08T14:20:27.344Z,82.90
2023-03-08T14:22:57.180Z,82.80
2023-03-08T14:25:33.229Z,83.10
2023-03-08T14:28:02.419Z,83.10
2023-03-08T14:30:33.294Z,83.60
2023-03-08T14:33:28.278Z,83.40
2023-03-08T14:36:02.555Z,83.40
2023-03-08T14:38:35.038Z,83.80
2023-03-08T14:41:07.339Z,83.80
2023-03-08T14:43:36.761Z,84.20
2023-03-08T14:46:10.457Z,84.10
2023-03-08T14:48:40.363Z,84.30
2023-03-08T14:51:30.192Z,85.10
2023-03-08T14:54:02.274Z,84.40
2023-03-08T14:56:33.195Z,84.60
2023-03-08T14:59:07.176Z,84.90
2023-03-08T15:01:40.529Z,84.90
2023-03-08T15:04:24.138Z,85.00
2023-03-08T15:06:55.946Z,85.30
2023-03-08T15:09:27.145Z,85.10
2023-03-08T15:12:00.822Z,85.20
2023-03-08T15:14:31.482Z,85.30
2023-03-08T15:17:00.647Z,85.30
2023-03-08T15:19:29.758Z,85.50
2023-03-08T15:21:59.004Z,85.40
2023-03-08T15:24:28.305Z,85.50
2023-03-08T15:26:58.223Z,85.70
2023-03-08T15:29:34.091Z,85.90
2023-03-08T15:32:03.890Z,85.80
2023-03-08T15:34:33.008Z,85.70
2023-03-08T15:37:02.170Z,85.90
2023-03-08T15:39:31.424Z,86.30
2023-03-08T15:42:01.528Z,86.50
2023-03-08T15:44:30.786Z,86.60
2023-03-08T15:47:00.196Z,86.60
2023-03-08T15:49:29.326Z,87.20
2023-03-08T15:51:58.548Z,87.40
2023-03-08T15:54:27.707Z,87.50
2023-03-08T15:56:56.806Z,87.60
2023-03-08T15:59:25.926Z,87.70
2023-03-08T16:01:55.107Z,87.90
2023-03-08T16:04:24.309Z,88.00
2023-03-08T16:06:53.381Z,88.10
2023-03-08T16:09:24.608Z,88.10
2023-03-08T16:11:53.785Z,88.20
2023-03-08T16:14:22.961Z,88.40
2023-03-08T16:16:52.126Z,88.60
2023-03-08T16:19:21.299Z,88.90
2023-03-08T16:21:52.642Z,89.40
2023-03-08T16:24:21.940Z,89.30
2023-03-08T16:26:51.145Z,89.20
2023-03-08T16:29:20.503Z,89.40
2023-03-08T16:31:50.058Z,89.50
2023-03-08T16:34:20.143Z,89.60
2023-03-08T16:36:49.401Z,89.80
2023-03-08T16:39:18.887Z,89.70
2023-03-08T16:41:48.459Z,90.00
2023-03-08T16:44:30.414Z,90.30
2023-03-08T16:46:59.603Z,90.00
2023-03-08T16:49:29.356Z,90.30
2023-03-08T16:51:58.986Z,90.30
2023-03-08T16:54:28.174Z,90.40
2023-03-08T16:56:58.694Z,90.30
2023-03-08T16:59:28.963Z,90.40
2023-03-08T17:01:58.058Z,90.50
2023-03-08T17:04:27.137Z,90.50
2023-03-08T17:06:56.990Z,90.60
2023-03-08T17:09:26.146Z,90.60
2023-03-08T17:11:55.309Z,90.70
2023-03-08T17:14:24.416Z,90.70
2023-03-08T17:16:53.726Z,90.60
2023-03-08T17:19:22.818Z,90.60
2023-03-08T17:21:53.721Z,90.70
2023-03-08T17:24:23.178Z,90.70
2023-03-08T17:26:54.041Z,90.70
2023-03-08T17:29:24.169Z,91.00
2023-03-08T17:31:54.063Z,91.10
2023-03-08T17:34:24.691Z,91.20
2023-03-08T17:36:54.461Z,91.30
2023-03-08T17:39:23.962Z,91.50
2023-03-08T17:41:53.449Z,91.60
2023-03-08T17:44:22.681Z,91.80
2023-03-08T17:46:51.864Z,91.80
2023-03-08T17:49:25.779Z,91.80
2023-03-08T17:51:55.842Z,91.80
2023-03-08T17:54:25.153Z,91.90
2023-03-08T17:56:54.340Z,92.00
2023-03-08T17:59:23.790Z,91.80
2023-03-08T18:01:53.015Z,92.00
2023-03-08T18:04:23.072Z,91.80
2023-03-08T18:06:52.334Z,91.70
2023-03-08T18:09:22.175Z,91.60
2023-03-08T18:11:51.392Z,91.60
2023-03-08T18:14:24.363Z,91.50
2023-03-08T18:16:57.691Z,91.40
2023-03-08T18:19:26.884Z,91.40
2023-03-08T18:21:58.303Z,91.30
2023-03-08T18:24:29.145Z,91.30
2023-03-08T18:26:59.123Z,91.10
2023-03-08T18:29:28.402Z,91.10
2023-03-08T18:31:57.578Z,91.10
2023-03-08T18:34:26.862Z,91.00
2023-03-08T18:37:00.790Z,90.80
2023-03-08T18:39:30.172Z,90.80
2023-03-08T18:42:01.611Z,91.00
2023-03-08T18:44:30.908Z,90.80
2023-03-08T18:47:00.556Z,90.40
2023-03-08T18:49:29.757Z,90.20
2023-03-08T18:51:59.728Z,89.80
2023-03-08T18:54:28.866Z,89.60
2023-03-08T18:56:59.197Z,89.50
2023-03-08T18:59:30.009Z,89.30
2023-03-08T19:01:59.125Z,89.60
2023-03-08T19:04:28.581Z,89.70
2023-03-08T19:06:57.715Z,90.30
2023-03-08T19:09:26.848Z,91.00
2023-03-08T19:11:55.896Z,91.10
2023-03-08T19:14:25.199Z,91.20
2023-03-08T19:16:54.301Z,91.40
2023-03-08T19:19:23.541Z,91.90
2023-03-08T19:21:52.728Z,91.80
2023-03-08T19:24:23.287Z,91.90
2023-03-08T19:26:54.191Z,92.00
2023-03-08T19:29:30.298Z,92.00
2023-03-08T19:32:09.058Z,92.10
2023-03-08T19:34:42.406Z,92.10
2023-03-08T19:37:14.336Z,92.10
2023-03-08T19:39:44.627Z,92.10
2023-03-08T19:42:17.331Z,92.20
2023-03-08T19:44:49.370Z,92.40
2023-03-08T19:47:19.401Z,92.40
2023-03-08T19:49:48.551Z,92.40
2023-03-08T19:52:17.753Z,92.60
2023-03-08T19:54:47.213Z,92.60
2023-03-08T19:57:16.409Z,92.70
2023-03-08T19:59:45.524Z,92.50
2023-03-08T20:02:15.368Z,92.70
2023-03-08T20:04:44.481Z,92.50
2023-03-08T20:07:13.640Z,92.50
2023-03-08T20:09:43.746Z,92.50
2023-03-08T20:12:12.862Z,92.40
2023-03-08T20:14:42.000Z,92.40
2023-03-08T20:17:11.104Z,92.30
2023-03-08T20:19:40.159Z,92.40
2023-03-08T20:22:09.285Z,92.40
2023-03-08T20:24:38.443Z,92.40
2023-03-08T20:27:07.550Z,92.50
2023-03-08T20:29:36.686Z,92.60
2023-03-08T20:32:06.036Z,92.60
2023-03-08T20:34:35.232Z,92.50
2023-03-08T20:37:04.389Z,92.60
2023-03-08T20:39:34.014Z,92.70
2023-03-08T20:42:03.193Z,92.90
2023-03-08T20:44:32.394Z,93.00
2023-03-08T20:47:02.374Z,93.10
2023-03-08T20:49:31.590Z,93.10
2023-03-08T20:52:00.799Z,93.20
2023-03-08T20:54:30.283Z,93.10
2023-03-08T20:57:02.602Z,93.30
2023-03-08T20:59:31.871Z,93.20
2023-03-08T21:02:01.122Z,93.20
2023-03-08T21:04:31.384Z,93.30
2023-03-08T21:07:01.152Z,93.30
2023-03-08T21:09:30.339Z,93.10
2023-03-08T21:11:59.567Z,93.10
2023-03-08T21:14:30.041Z,93.10
2023-03-08T21:16:59.180Z,93.00
2023-03-08T21:19:28.452Z,93.00
2023-03-08T21:21:57.635Z,93.00
2023-03-08T21:24:27.143Z,93.00
2023-03-08T21:26:56.373Z,93.00
2023-03-08T21:29:26.152Z,92.90
2023-03-08T21:31:56.491Z,92.80
2023-03-08T21:34:25.777Z,92.80
2023-03-08T21:36:55.102Z,92.70
2023-03-08T21:39:24.456Z,92.70
2023-03-08T21:41:56.437Z,92.80
2023-03-08T21:44:26.377Z,92.80
2023-03-08T21:46:56.474Z,92.80
2023-03-08T21:49:29.810Z,92.80
2023-03-08T21:52:00.429Z,92.70
2023-03-08T21:54:32.372Z,92.80
2023-03-08T21:57:01.866Z,92.80
2023-03-08T21:59:31.490Z,92.70
2023-03-08T22:02:00.764Z,92.80
2023-03-08T22:04:30.441Z,92.90
2023-03-08T22:06:59.709Z,92.90
2023-03-08T22:09:30.123Z,93.00
2023-03-08T22:12:00.254Z,93.00
2023-03-08T22:14:31.214Z,93.00
2023-03-08T22:17:02.298Z,93.10
2023-03-08T22:19:31.480Z,93.10
2023-03-08T22:22:01.711Z,93.20
2023-03-08T22:24:33.747Z,93.20
2023-03-08T22:27:05.481Z,93.30
2023-03-08T22:29:35.635Z,93.40
2023-03-08T22:32:06.487Z,93.60
2023-03-08T22:34:36.871Z,93.40
2023-03-08T22:37:07.148Z,93.40
2023-03-08T22:39:38.200Z,93.40
2023-03-08T22:42:07.905Z,93.50
2023-03-08T22:44:37.202Z,93.50
2023-03-08T22:47:06.880Z,93.60
2023-03-08T22:49:36.048Z,93.70
2023-03-08T22:52:06.100Z,93.70
2023-03-08T22:54:35.615Z,93.60
2023-03-08T22:57:05.996Z,93.80
2023-03-08T22:59:35.549Z,93.70
2023-03-08T23:02:05.496Z,93.70
2023-03-08T23:04:34.718Z,93.80
2023-03-08T23:07:03.957Z,93.80
2023-03-08T23:09:33.452Z,93.80
2023-03-08T23:12:05.608Z,93.80
2023-03-08T23:14:36.552Z,93.80
2023-03-08T23:17:05.772Z,93.90
2023-03-08T23:19:34.905Z,93.80
2023-03-08T23:22:04.704Z,94.00
2023-03-08T23:24:33.859Z,94.20
2023-03-08T23:27:04.657Z,94.00
2023-03-08T23:29:33.848Z,93.90
2023-03-08T23:32:03.268Z,94.00
2023-03-08T23:37:17.964Z,94.40
2023-03-08T23:39:47.170Z,94.10
2023-03-08T23:42:16.413Z,94.20
2023-03-08T23:44:45.684Z,94.50
2023-03-08T23:47:14.895Z,94.30
2023-03-08T23:49:44.095Z,94.30
2023-03-08T23:52:13.298Z,94.40
2023-03-08T23:54:42.640Z,94.60
2023-03-08T23:57:11.886Z,94.30
2023-03-08T23:59:41.246Z,94.30
